Main page
METAR-TAF:

METAR-TAF

Airports :

Hua Hin Airport

Hua Hin, Thailand

latitude: 12-35N, longitude: 099-57E, elevation: 5 m

Current weather observation

The report was made 50 minutes ago, at 05:00 UTC
Wind 8 kt from the East/Southeast
Temperature 36°C
Humidity 57%
Pressure 1005 hPa
Visibility 10 km or more
Few clouds at a height of 3000 ft

METAR: VTPH 190500Z 12008KT 9999 FEW030 36/26 Q1005 NOSIG

Time: 12:50 (05:50 UTC)

Forecast

The report was made 50 minutes ago, at 05:00 UTC
Forecast valid from 19 at 06 UTC to 20 at 06 UTC
Wind 10 kt from the Southeast
Visibility 10 km or more
Few clouds at a height of 3000 ft
Becoming
from 19 at 15 UTC to 19 at 17 UTC
Wind 3 kt from the West/Southwest
Becoming
from 20 at 01 UTC to 20 at 03 UTC
Wind 10 kt from the Southeast

TAF: VTPH 190500Z 1906/2006 14010KT 9999 FEW030 BECMG 1915/1917 24003KT BECMG 2001/2003 14010KT

Weather observations and forecasts of more than 4000 airports (METAR and TAF reports).

The available stations are represented by yellow and red dots on the map.

Hover mouse over dot to see the name of the station.

Then click to see weather observations and forecasts.

To change the map : click on the green buttons with a black cross to zoom in, on the green button with a dash to zoom out, or on the green arrows for adjacent maps.


METAR-TAF: